Stations météo

réclame
Mon MeteoGroup
Falsterbo A, Suède (2615): Température de l'air & dewpoint: 12.06.2018 13:00:00 - 18.06.2018 13:00:00 (CEST)Falsterbo A, Suède (2615): Vitesse du vent & gusts: 12.06.2018 13:00:00 - 18.06.2018 13:00:00 (CEST)Falsterbo A, Suède (2615): Direction du vent: 12.06.2018 13:00:00 - 18.06.2018 13:00:00 (CEST)Falsterbo A, Suède (2615): reduced air pressure: 12.06.2018 13:00:00 - 18.06.2018 13:00:00 (CEST)Falsterbo A, Suède (2615): Quantités de précipitations: 12.06.2018 13:00:00 - 18.06.2018 13:00:00 (CEST)
Date & Time tt [°C] td [°C] ff [km/h] ff [knt] fx [km/h] fx [knt] dd ppp [hPa] rr [mm]
18.06.2018 13:00:00 - - - - - - - - -
18.06.2018 12:00:00 19,6 10,0 22 12 31 17 SW 1017,6 0,0
18.06.2018 11:00:00 19,0 10,5 22 12 31 17 SW 1017,7 0,0
18.06.2018 10:00:00 18,2 10,8 22 12 30 16 SW 1017,6 0,0
18.06.2018 09:00:00 17,2 10,3 24 13 30 16 WSW 1017,3 0,0
18.06.2018 08:00:00 17,0 10,4 14 8 29 16 WSW 1017,2 0,0
18.06.2018 07:00:00 15,1 10,3 18 10 30 16 W 1017,3 0,0
18.06.2018 06:00:00 15,1 10,5 26 14 31 17 W 1017,3 0,0
18.06.2018 05:00:00 15,1 10,3 25 14 35 19 W 1016,7 0,0
18.06.2018 04:00:00 15,2 10,2 28 15 37 20 W 1016,8 0,0
18.06.2018 03:00:00 15,4 10,2 29 16 37 20 W 1016,9 0,0
18.06.2018 02:00:00 15,6 9,7 29 16 37 20 W 1016,8 0,0
18.06.2018 01:00:00 16,0 9,0 29 16 35 19 W 1016,4 0,0
18.06.2018 00:00:00 - - - - 35 19 - - -
17.06.2018 23:00:00 16,9 7,8 27 14 35 19 W 1015,8 0,0
17.06.2018 22:00:00 17,7 8,0 29 16 34 19 W 1015,7 0,0
17.06.2018 21:00:00 18,3 8,6 23 12 37 20 W 1015,2 0,0
17.06.2018 20:00:00 18,7 8,9 27 14 39 21 W 1014,6 0,0
17.06.2018 19:00:00 19,0 7,4 29 16 39 21 W 1014,3 0,0
17.06.2018 18:00:00 18,5 11,3 14 7 40 22 NW 1014,3 0,0
17.06.2018 17:00:00 19,1 12,4 28 15 40 22 WNW 1014,1 0,0
17.06.2018 16:00:00 20,4 12,4 29 16 39 21 WSW 1013,4 0,0
17.06.2018 15:00:00 20,6 11,2 29 16 40 22 WSW 1013,1 0,0
17.06.2018 14:00:00 20,4 11,9 30 16 40 22 WSW 1013,0 0,0
17.06.2018 13:00:00 20,6 13,3 22 12 28 15 SW 1012,7 0,0
17.06.2018 12:00:00 19,3 13,2 18 10 27 15 WSW 1012,5 0,0
17.06.2018 11:00:00 17,3 13,8 19 11 27 15 W 1012,5 0,0
17.06.2018 10:00:00 17,8 14,3 15 8 19 11 S 1012,5 0,0
17.06.2018 09:00:00 16,1 12,8 6 4 32 17 S 1012,4 0,0
17.06.2018 08:00:00 15,9 12,6 9 5 32 17 W 1012,3 2,9
17.06.2018 07:00:00 16,8 13,1 5 3 29 16 E 1012,3 0,3
17.06.2018 06:00:00 16,9 13,4 17 9 29 16 ESE 1012,2 0,0
17.06.2018 05:00:00 17,0 13,1 22 12 34 18 ESE 1012,1 0,0
17.06.2018 04:00:00 17,0 13,1 23 12 34 18 ESE 1012,5 0,0
17.06.2018 03:00:00 16,7 13,0 20 11 35 19 ESE 1012,9 0,0
17.06.2018 02:00:00 16,9 12,8 24 13 35 19 ESE 1013,0 0,0
17.06.2018 01:00:00 16,7 13,6 26 14 37 20 ESE 1013,5 0,0
17.06.2018 00:00:00 16,0 13,1 29 16 48 26 ESE 1014,1 0,6
16.06.2018 23:00:00 17,0 12,1 32 18 48 26 ESE 1013,9 0,0
16.06.2018 22:00:00 16,8 12,1 36 20 47 26 ESE 1013,9 0,2
16.06.2018 21:00:00 16,5 12,8 28 15 41 22 SE 1014,7 0,0
16.06.2018 20:00:00 18,0 12,2 29 16 41 22 ESE 1014,5 0,0
16.06.2018 19:00:00 18,2 12,0 32 17 41 22 ESE 1014,7 0,0
16.06.2018 18:00:00 18,8 12,3 31 17 38 20 ESE 1015,2 0,0
16.06.2018 17:00:00 19,3 11,6 29 16 36 19 ESE 1015,8 0,0
16.06.2018 16:00:00 20,2 11,1 24 13 33 18 ESE 1016,1 0,0
16.06.2018 15:00:00 19,8 12,3 24 13 32 17 ESE 1016,5 0,0
16.06.2018 14:00:00 19,8 11,0 24 13 30 16 SE 1017,3 0,0
16.06.2018 13:00:00 19,1 10,9 23 12 28 15 SE 1017,7 0,0
16.06.2018 12:00:00 18,2 12,0 20 11 24 13 SE 1017,7 0,0
16.06.2018 11:00:00 17,9 10,5 14 7 16 9 SE 1017,9 0,0
16.06.2018 10:00:00 18,1 8,9 7 4 11 6 SSE 1017,9 0,0
16.06.2018 09:00:00 19,1 9,8 5 3 11 6 WSW 1017,9 0,0
16.06.2018 08:00:00 18,9 9,7 9 5 13 7 WSW 1018,0 0,0
16.06.2018 07:00:00 17,6 9,2 8 5 18 10 WSW 1017,8 0,0
16.06.2018 06:00:00 16,7 9,9 13 7 18 10 SW 1017,8 0,0
16.06.2018 05:00:00 15,5 10,8 14 7 16 9 SSW 1017,9 0,0
16.06.2018 04:00:00 14,8 9,4 10 5 16 9 WSW 1017,7 0,0
16.06.2018 03:00:00 16,9 9,1 12 6 16 9 W 1017,8 0,0
16.06.2018 02:00:00 16,0 10,3 12 7 17 9 WSW 1017,5 0,0
16.06.2018 01:00:00 14,0 7,5 14 8 18 10 S 1017,2 0,0
16.06.2018 00:00:00 14,9 8,8 15 8 18 10 S 1017,2 0,0
15.06.2018 23:00:00 14,8 8,1 13 7 16 8 SSW 1017,4 0,0
15.06.2018 22:00:00 14,8 6,4 8 5 13 7 S 1017,3 0,0
15.06.2018 21:00:00 17,2 7,8 10 5 12 7 SSW 1017,2 0,0
15.06.2018 20:00:00 19,1 6,6 8 5 15 8 WSW 1017,1 0,0
15.06.2018 19:00:00 19,0 6,5 7 4 16 9 WSW 1017,1 0,0
15.06.2018 18:00:00 20,7 7,0 11 6 18 10 SW 1017,2 0,0
15.06.2018 17:00:00 21,8 7,6 11 6 18 10 SW 1017,2 0,0
15.06.2018 16:00:00 22,0 8,5 12 7 19 10 SW 1017,0 0,0
15.06.2018 15:00:00 21,6 9,2 12 6 19 10 SW 1016,9 0,0
15.06.2018 14:00:00 21,6 8,8 12 6 17 9 SW 1016,9 0,0
15.06.2018 13:00:00 20,4 8,4 9 5 20 11 W 1016,8 0,0
15.06.2018 12:00:00 19,3 8,9 14 8 22 12 WNW 1016,5 0,0
15.06.2018 11:00:00 18,7 9,5 16 9 22 12 WNW 1016,2 0,0
15.06.2018 10:00:00 18,2 10,6 15 8 27 15 W 1015,8 0,0
15.06.2018 09:00:00 16,4 10,5 16 9 30 16 W 1015,3 0,0
15.06.2018 08:00:00 15,4 11,0 20 11 30 16 W 1014,9 0,0
15.06.2018 07:00:00 15,1 10,5 24 13 31 17 W 1014,3 0,0
15.06.2018 06:00:00 15,0 10,8 22 12 38 20 W 1013,9 0,0
15.06.2018 05:00:00 15,3 11,5 26 14 38 20 W 1013,5 0,0
15.06.2018 04:00:00 15,6 12,2 25 13 43 23 W 1013,1 0,0
15.06.2018 03:00:00 15,9 12,6 27 15 43 23 W 1012,7 0,0
15.06.2018 02:00:00 16,9 12,4 34 18 41 22 WSW 1012,3 0,0
15.06.2018 01:00:00 17,2 12,3 32 18 41 22 WSW 1012,3 0,0
15.06.2018 00:00:00 17,1 12,2 25 14 31 17 WSW 1012,3 0,0
14.06.2018 23:00:00 16,5 11,4 19 10 40 22 WSW 1012,4 0,0
14.06.2018 22:00:00 16,5 11,8 29 16 40 22 W 1012,3 0,0
14.06.2018 21:00:00 17,7 11,3 26 14 38 20 S 1011,7 0,0
14.06.2018 20:00:00 18,1 11,4 27 14 38 20 SSW 1011,5 0,0
14.06.2018 19:00:00 19,6 11,4 29 16 42 23 SSW 1011,4 0,0
14.06.2018 18:00:00 20,5 11,4 29 16 42 23 SSW 1011,7 0,0
14.06.2018 17:00:00 20,8 11,4 36 20 43 23 SSW 1011,9 0,0
14.06.2018 16:00:00 20,9 11,5 35 19 45 24 SSW 1012,2 0,0
14.06.2018 15:00:00 21,1 10,6 35 19 45 24 SSW 1012,5 0,0
14.06.2018 14:00:00 20,5 10,9 34 18 40 22 SSW 1012,8 0,0
14.06.2018 13:00:00 21,3 10,2 27 15 34 18 SSW 1012,9 0,0
14.06.2018 12:00:00 19,6 9,5 22 12 34 19 SW 1013,3 0,0
14.06.2018 11:00:00 18,4 9,2 25 14 34 19 SW 1013,5 0,0
14.06.2018 10:00:00 17,3 8,2 18 10 25 13 SW 1013,5 0,0
14.06.2018 09:00:00 15,2 6,0 14 7 29 16 WSW 1013,5 0,0
14.06.2018 08:00:00 15,0 5,2 14 8 31 17 W 1013,4 0,0
14.06.2018 07:00:00 14,3 4,8 19 10 34 19 W 1013,3 0,0
14.06.2018 06:00:00 14,3 5,9 25 14 38 20 W 1013,3 0,0
14.06.2018 05:00:00 14,3 6,4 29 16 39 21 W 1012,9 0,0
14.06.2018 04:00:00 14,6 7,2 32 17 39 21 W 1012,8 0,0
14.06.2018 03:00:00 14,7 8,2 32 17 39 21 W 1012,6 0,0
14.06.2018 02:00:00 15,3 8,3 29 16 39 21 WNW 1012,4 0,0
14.06.2018 01:00:00 15,0 9,4 32 17 41 22 W 1012,0 0,0
14.06.2018 00:00:00 15,7 9,1 33 18 41 22 WNW 1012,2 0,0
13.06.2018 23:00:00 16,5 8,5 33 18 40 21 WNW 1012,0 0,0
13.06.2018 22:00:00 17,2 9,6 27 15 36 19 NW 1011,2 0,0
13.06.2018 21:00:00 18,2 9,3 30 16 34 19 WNW 1010,4 0,0
13.06.2018 20:00:00 18,8 9,3 27 15 31 17 WNW 1009,9 0,0
13.06.2018 19:00:00 19,4 9,3 20 11 36 19 NW 1009,6 0,0
13.06.2018 18:00:00 20,0 9,0 26 14 36 20 WNW 1009,5 0,0
13.06.2018 17:00:00 19,4 9,6 31 17 36 20 WNW 1009,0 0,0
13.06.2018 16:00:00 20,7 10,5 26 14 31 17 WNW 1008,7 0,0
13.06.2018 15:00:00 21,9 11,3 10 6 19 10 SW 1008,5 0,0
13.06.2018 14:00:00 20,9 11,2 10 5 29 16 W 1008,6 0,0
13.06.2018 13:00:00 17,9 11,5 19 11 29 16 WNW 1008,9 0,0
13.06.2018 12:00:00 18,1 11,2 22 12 29 15 W 1008,7 0,0
13.06.2018 11:00:00 16,7 11,6 23 13 29 16 W 1008,8 0,0
13.06.2018 10:00:00 15,4 11,8 24 13 33 18 W 1008,6 0,0
13.06.2018 09:00:00 15,8 12,0 21 12 37 20 NW 1008,4 0,0
13.06.2018 08:00:00 15,5 12,3 29 16 37 20 WNW 1008,0 0,0
13.06.2018 07:00:00 15,5 12,4 29 16 35 19 WNW 1007,8 0,0
13.06.2018 06:00:00 15,5 12,3 29 16 35 19 WNW 1007,7 0,0
13.06.2018 05:00:00 15,2 11,8 25 14 31 17 W 1007,8 0,0
13.06.2018 04:00:00 15,5 11,5 23 12 29 16 W 1008,1 0,0
13.06.2018 03:00:00 15,6 11,6 23 12 32 17 W 1008,2 0,0
13.06.2018 02:00:00 16,5 11,8 21 12 32 17 WNW 1008,1 0,0
13.06.2018 01:00:00 17,1 12,4 25 13 30 16 W 1008,1 0,0
13.06.2018 00:00:00 17,0 12,3 23 12 31 17 W 1007,9 0,0
12.06.2018 23:00:00 17,0 12,5 24 13 31 17 WSW 1008,0 0,0
12.06.2018 22:00:00 16,9 11,8 26 14 30 16 WSW 1008,0 0,0
12.06.2018 21:00:00 17,8 11,8 20 11 26 14 W 1007,7 0,0
12.06.2018 20:00:00 18,3 10,6 17 9 26 14 W 1007,5 0,0
12.06.2018 19:00:00 18,2 10,8 19 11 32 18 W 1007,8 0,0
12.06.2018 18:00:00 19,2 11,2 21 11 36 19 W 1007,8 0,0
12.06.2018 17:00:00 18,7 12,2 31 17 36 19 WSW 1008,1 0,0
12.06.2018 16:00:00 19,7 11,7 25 13 30 16 WSW 1008,1 0,0
12.06.2018 15:00:00 20,9 10,4 13 7 20 11 W 1008,1 0,0
12.06.2018 14:00:00 19,8 10,2 14 8 22 12 WNW 1008,1 0,0
12.06.2018 13:00:00 19,0 10,5 15 8 27 14 WNW 1008,1 0,0

tt = Température de l'air
td = dewpoint
ff = Vitesse du vent
fx = gusts
dd = Direction du vent
ppp = reduced air pressure
rr = Quantités de précipitations

stations d'obs. à proximité